createdAt,value
2019-04-20T00:02:14.240Z,14.60
2019-04-20T00:04:45.209Z,14.60
2019-04-20T00:07:18.654Z,14.60
2019-04-20T00:09:55.345Z,14.50
2019-04-20T00:12:34.318Z,14.50
2019-04-20T00:14:54.961Z,14.50
2019-04-20T00:17:26.992Z,14.40
2019-04-20T00:19:58.959Z,14.40
2019-04-20T00:22:46.063Z,14.30
2019-04-20T00:25:47.517Z,14.30
2019-04-20T00:28:33.736Z,14.30
2019-04-20T00:31:04.161Z,14.20
2019-04-20T00:33:30.905Z,14.20
2019-04-20T00:35:48.464Z,14.20
2019-04-20T00:38:21.050Z,14.20
2019-04-20T00:40:59.342Z,14.20
2019-04-20T00:43:28.119Z,14.20
2019-04-20T00:46:04.805Z,14.20
2019-04-20T00:48:44.321Z,14.20
2019-04-20T00:51:24.092Z,14.20
2019-04-20T00:53:41.474Z,14.10
2019-04-20T00:56:08.327Z,14.10
2019-04-20T00:58:52.303Z,14.00
2019-04-20T01:01:31.038Z,14.00
2019-04-20T01:04:07.165Z,14.00
2019-04-20T01:06:51.584Z,14.00
2019-04-20T01:09:20.353Z,13.90
2019-04-20T01:11:52.496Z,14.00
2019-04-20T01:14:31.187Z,14.00
2019-04-20T01:17:02.011Z,13.90
2019-04-20T01:19:27.360Z,13.90
2019-04-20T01:22:03.394Z,13.80
2019-04-20T01:24:35.376Z,13.80
2019-04-20T01:27:04.140Z,13.80
2019-04-20T01:29:41.123Z,13.80
2019-04-20T01:32:18.792Z,13.80
2019-04-20T01:34:52.357Z,13.80
2019-04-20T01:37:26.066Z,13.80
2019-04-20T01:39:50.237Z,13.70
2019-04-20T01:42:15.666Z,13.70
2019-04-20T01:44:49.186Z,13.70
2019-04-20T01:47:19.080Z,13.70
2019-04-20T01:49:57.497Z,13.70
2019-04-20T01:52:28.725Z,13.70
2019-04-20T01:55:24.735Z,13.70
2019-04-20T01:58:00.612Z,13.60
2019-04-20T02:00:40.748Z,13.70
2019-04-20T02:03:35.183Z,13.60
2019-04-20T02:06:11.625Z,13.70
2019-04-20T02:08:42.140Z,13.70
2019-04-20T02:11:21.319Z,13.70
2019-04-20T02:13:51.626Z,13.70
2019-04-20T02:16:26.422Z,13.70
2019-04-20T02:19:06.682Z,13.70
2019-04-20T02:21:38.814Z,13.70
2019-04-20T02:23:59.361Z,13.70
2019-04-20T02:26:26.128Z,13.70
2019-04-20T02:29:23.627Z,13.70
2019-04-20T02:32:10.291Z,13.80
2019-04-20T02:37:49.382Z,13.80
2019-04-20T02:45:27.905Z,13.80
2019-04-20T02:47:54.877Z,13.80
2019-04-20T02:50:30.489Z,13.70
2019-04-20T03:02:47.364Z,13.60
2019-04-20T03:05:20.434Z,13.60
2019-04-20T03:07:57.549Z,13.50
2019-04-20T03:10:43.016Z,13.50
2019-04-20T03:13:09.822Z,13.50
2019-04-20T03:15:37.915Z,13.50
2019-04-20T03:18:11.365Z,13.50
2019-04-20T03:20:43.519Z,13.50
2019-04-20T03:23:26.425Z,13.50
2019-04-20T03:26:12.788Z,13.50
2019-04-20T03:29:13.950Z,13.50
2019-04-20T03:32:33.036Z,13.50
2019-04-20T03:37:07.367Z,13.40
2019-04-20T03:39:32.511Z,13.40
2019-04-20T03:41:52.015Z,13.40
2019-04-20T03:44:25.578Z,13.40
2019-04-20T03:46:58.018Z,13.30
2019-04-20T03:49:52.493Z,13.30
2019-04-20T03:52:34.361Z,13.20
2019-04-20T03:55:28.952Z,13.20
2019-04-20T03:58:17.040Z,13.10
2019-04-20T04:01:08.220Z,13.10
2019-04-20T04:03:53.302Z,13.00
2019-04-20T04:06:19.843Z,12.90
2019-04-20T04:08:53.143Z,12.90
2019-04-20T04:11:30.470Z,12.80
2019-04-20T04:13:42.026Z,12.70
2019-04-20T04:16:18.142Z,12.60
2019-04-20T04:18:49.620Z,12.50
2019-04-20T04:21:27.486Z,12.40
2019-04-20T04:24:05.527Z,12.20
2019-04-20T04:26:39.076Z,12.00
2019-04-20T04:29:22.638Z,11.90
2019-04-20T04:31:56.600Z,11.80
2019-04-20T04:34:18.770Z,11.80
2019-04-20T04:36:56.171Z,11.70
2019-04-20T04:39:26.309Z,11.70
2019-04-20T04:42:07.470Z,11.70
2019-04-20T04:44:24.182Z,11.70
2019-04-20T04:46:50.411Z,11.70
2019-04-20T04:49:24.059Z,11.70
2019-04-20T04:51:54.400Z,11.70
2019-04-20T04:54:28.821Z,11.80
2019-04-20T04:56:50.459Z,11.80
2019-04-20T04:59:21.371Z,11.80
2019-04-20T05:01:54.933Z,11.80
2019-04-20T05:05:05.377Z,11.80
2019-04-20T05:07:38.770Z,11.80
2019-04-20T05:09:59.403Z,11.80
2019-04-20T05:12:33.397Z,11.80
2019-04-20T05:15:12.975Z,11.90
2019-04-20T05:17:57.898Z,11.90
2019-04-20T05:20:21.874Z,11.90
2019-04-20T05:23:13.060Z,11.90
2019-04-20T05:26:25.604Z,11.90
2019-04-20T05:28:33.627Z,12.00
2019-04-20T05:30:58.724Z,12.00
2019-04-20T05:33:42.511Z,12.00
2019-04-20T05:36:18.582Z,12.10
2019-04-20T05:38:55.744Z,12.10
2019-04-20T05:41:21.534Z,12.20
2019-04-20T05:44:02.061Z,12.20
2019-04-20T05:46:31.986Z,12.30
2019-04-20T05:49:14.048Z,12.40
2019-04-20T05:51:41.001Z,12.50
2019-04-20T05:54:13.521Z,12.50
2019-04-20T05:56:50.114Z,12.60
2019-04-20T05:59:16.304Z,12.70
2019-04-20T06:01:52.675Z,12.80
2019-04-20T06:04:28.716Z,12.90
2019-04-20T06:06:54.954Z,12.90
2019-04-20T06:09:28.296Z,13.10
2019-04-20T06:12:17.996Z,13.20
2019-04-20T06:14:47.038Z,13.30
2019-04-20T06:17:31.775Z,13.40
2019-04-20T06:20:09.055Z,13.50
2019-04-20T06:22:42.872Z,13.60
2019-04-20T06:25:40.940Z,13.70
2019-04-20T06:27:55.389Z,13.80
2019-04-20T06:30:17.558Z,13.90
2019-04-20T06:33:46.399Z,14.00
2019-04-20T06:36:18.252Z,14.10
2019-04-20T06:38:52.321Z,14.30
2019-04-20T06:41:14.254Z,14.40
2019-04-20T06:43:41.161Z,14.40
2019-04-20T06:46:14.856Z,14.60
2019-04-20T06:48:46.705Z,14.70
2019-04-20T06:51:25.367Z,14.80
2019-04-20T06:53:49.960Z,14.90
2019-04-20T06:56:35.760Z,15.10
2019-04-20T06:59:12.595Z,15.20
2019-04-20T07:01:46.812Z,15.20
2019-04-20T07:04:36.459Z,15.40
2019-04-20T07:06:50.762Z,15.50
2019-04-20T07:09:21.711Z,15.70
2019-04-20T07:11:46.785Z,15.80
2019-04-20T07:14:06.640Z,15.90
2019-04-20T07:16:58.582Z,16.00
2019-04-20T07:19:30.034Z,16.10
2019-04-20T07:22:25.368Z,16.20
2019-04-20T07:24:53.156Z,16.30
2019-04-20T07:27:19.776Z,16.40
2019-04-20T07:29:56.501Z,16.50
2019-04-20T07:32:17.845Z,16.70
2019-04-20T07:34:56.833Z,16.70
2019-04-20T07:38:03.315Z,16.80
2019-04-20T07:40:07.795Z,16.90
2019-04-20T07:42:43.314Z,17.00
2019-04-20T07:45:16.442Z,17.10
2019-04-20T07:47:47.813Z,17.30
2019-04-20T07:50:12.925Z,17.30
2019-04-20T07:52:45.067Z,17.50
2019-04-20T07:57:55.021Z,17.70
2019-04-20T08:00:44.248Z,17.80
2019-04-20T08:03:43.966Z,17.80
2019-04-20T08:06:16.599Z,17.90
2019-04-20T08:08:57.139Z,18.00
2019-04-20T08:11:36.821Z,18.10
2019-04-20T08:14:16.276Z,18.20
2019-04-20T08:16:49.104Z,18.30
2019-04-20T08:19:14.704Z,18.40
2019-04-20T08:21:42.251Z,18.50
2019-04-20T08:24:13.275Z,18.50
2019-04-20T08:26:32.601Z,18.60
2019-04-20T08:29:18.817Z,18.70
2019-04-20T08:32:29.241Z,18.70
2019-04-20T08:35:05.653Z,18.70
2019-04-20T08:37:37.991Z,18.80
2019-04-20T08:40:13.220Z,18.90
2019-04-20T08:42:52.014Z,19.10
2019-04-20T08:45:17.976Z,19.10
2019-04-20T08:47:51.914Z,19.20
2019-04-20T08:53:12.348Z,19.20
2019-04-20T08:55:21.311Z,19.20
2019-04-20T08:57:35.666Z,19.30
2019-04-20T09:00:09.095Z,19.40
2019-04-20T09:02:41.294Z,19.40
2019-04-20T09:05:29.458Z,19.50
2019-04-20T09:07:56.658Z,19.50
2019-04-20T09:10:39.244Z,19.50
2019-04-20T09:13:03.966Z,19.60
2019-04-20T09:15:23.357Z,19.70
2019-04-20T09:18:00.949Z,19.80
2019-04-20T09:20:42.352Z,19.90
2019-04-20T09:23:21.577Z,20.00
2019-04-20T09:26:02.338Z,20.10
2019-04-20T09:28:32.295Z,20.10
2019-04-20T09:31:20.181Z,20.30
2019-04-20T09:34:24.793Z,20.40
2019-04-20T09:37:24.288Z,20.50
2019-04-20T09:40:21.320Z,20.60
2019-04-20T09:42:54.045Z,20.70
2019-04-20T09:45:37.335Z,20.70
2019-04-20T09:48:03.143Z,20.80
2019-04-20T09:50:55.610Z,20.90
2019-04-20T09:53:29.680Z,21.00
2019-04-20T09:56:08.832Z,21.10
2019-04-20T09:58:57.714Z,21.20
2019-04-20T10:01:19.197Z,21.20
2019-04-20T10:03:38.783Z,21.20
2019-04-20T10:06:13.736Z,21.20
2019-04-20T10:08:51.098Z,21.40
2019-04-20T10:11:17.294Z,21.50
2019-04-20T10:13:52.294Z,21.60
2019-04-20T10:16:23.884Z,21.70
2019-04-20T10:18:56.927Z,21.60
2019-04-20T10:21:30.241Z,21.80
2019-04-20T10:24:02.957Z,21.80
2019-04-20T10:26:34.625Z,21.80
2019-04-20T10:29:07.973Z,21.90
2019-04-20T10:31:46.559Z,21.90
2019-04-20T10:34:13.495Z,22.10
2019-04-20T10:37:03.844Z,22.20
2019-04-20T10:39:40.511Z,22.30
2019-04-20T10:42:14.334Z,22.40
2019-04-20T10:44:45.335Z,22.50
2019-04-20T10:47:16.885Z,22.70
2019-04-20T10:49:49.271Z,22.70
2019-04-20T10:52:25.586Z,22.90
2019-04-20T10:55:00.735Z,23.00
2019-04-20T10:57:33.318Z,23.00
2019-04-20T11:00:04.024Z,23.00
2019-04-20T11:02:37.370Z,23.00
2019-04-20T11:05:09.110Z,23.10
2019-04-20T11:07:40.807Z,23.30
2019-04-20T11:10:19.853Z,23.40
2019-04-20T11:12:44.296Z,23.60
2019-04-20T11:15:16.435Z,25.30
2019-04-20T11:17:47.371Z,27.20
2019-04-20T11:20:17.681Z,27.70
2019-04-20T11:22:48.620Z,27.20
2019-04-20T11:25:20.054Z,26.80
2019-04-20T11:27:56.384Z,26.50
2019-04-20T11:30:27.987Z,26.50
2019-04-20T11:32:58.578Z,26.80
2019-04-20T11:35:34.438Z,26.90
2019-04-20T11:38:01.158Z,26.60
2019-04-20T11:40:32.913Z,26.60
2019-04-20T11:43:03.885Z,26.30
2019-04-20T11:45:34.372Z,26.00
2019-04-20T11:48:05.389Z,25.70
2019-04-20T11:50:35.967Z,25.60
2019-04-20T11:53:06.332Z,25.60
2019-04-20T11:55:36.762Z,25.50
2019-04-20T11:58:08.089Z,25.70
2019-04-20T12:00:53.983Z,25.60
2019-04-20T12:03:24.749Z,25.50
2019-04-20T12:05:53.731Z,25.50
2019-04-20T12:08:23.011Z,25.50
2019-04-20T12:10:59.855Z,25.50
2019-04-20T12:13:26.985Z,25.30
2019-04-20T12:15:57.599Z,25.40
2019-04-20T12:18:29.481Z,25.60
2019-04-20T12:21:00.829Z,25.60
2019-04-20T12:23:31.609Z,25.60
2019-04-20T12:26:06.884Z,25.60
2019-04-20T12:28:37.922Z,25.70
2019-04-20T12:31:11.865Z,25.60
2019-04-20T12:33:44.324Z,25.60
2019-04-20T12:36:18.609Z,25.90
2019-04-20T12:38:51.013Z,26.00
2019-04-20T12:41:34.431Z,26.00
2019-04-20T12:43:56.611Z,26.10
2019-04-20T12:46:28.196Z,26.30
2019-04-20T12:49:01.834Z,26.10
2019-04-20T12:51:37.865Z,26.10
2019-04-20T12:54:04.736Z,26.10
2019-04-20T12:56:35.864Z,26.30
2019-04-20T12:59:07.486Z,26.20
2019-04-20T13:01:37.940Z,26.30
2019-04-20T13:04:09.419Z,26.30
2019-04-20T13:06:40.869Z,26.50
2019-04-20T13:09:12.751Z,26.50
2019-04-20T13:11:59.434Z,26.40
2019-04-20T13:15:54.203Z,26.50
2019-04-20T13:18:39.201Z,26.50
2019-04-20T13:21:09.595Z,26.90
2019-04-20T13:23:40.834Z,27.50
2019-04-20T13:26:12.755Z,28.20
2019-04-20T13:28:43.789Z,28.10
2019-04-20T13:31:15.628Z,27.80
2019-04-20T13:33:47.578Z,27.60
2019-04-20T13:36:18.147Z,27.30
2019-04-20T13:38:48.470Z,27.20
2019-04-20T13:41:19.844Z,27.00
2019-04-20T13:43:50.519Z,27.00
2019-04-20T13:46:21.280Z,27.00
2019-04-20T13:48:53.237Z,27.00
2019-04-20T13:51:26.549Z,27.00
2019-04-20T13:53:57.334Z,27.10
2019-04-20T13:56:28.215Z,27.10
2019-04-20T13:59:03.823Z,27.10
2019-04-20T14:01:47.083Z,27.30
2019-04-20T14:04:23.184Z,27.30
2019-04-20T14:06:55.223Z,27.20
2019-04-20T14:09:27.482Z,27.10
2019-04-20T14:12:10.299Z,27.00
2019-04-20T14:14:31.035Z,27.20
2019-04-20T14:17:01.547Z,27.10
2019-04-20T14:19:31.903Z,27.20
2019-04-20T14:22:02.372Z,27.10
2019-04-20T14:24:33.213Z,27.30
2019-04-20T14:27:03.852Z,27.40
2019-04-20T14:29:34.794Z,27.20
2019-04-20T14:32:07.149Z,27.20
2019-04-20T14:34:38.614Z,27.30
2019-04-20T14:37:09.227Z,27.30
2019-04-20T14:39:40.589Z,27.30
2019-04-20T14:42:23.210Z,27.30
2019-04-20T14:44:43.732Z,27.10
2019-04-20T14:47:15.761Z,27.20
2019-04-20T14:49:46.561Z,27.20
2019-04-20T14:52:17.667Z,27.20
2019-04-20T14:54:49.793Z,27.00
2019-04-20T14:57:21.435Z,26.60
2019-04-20T14:59:55.942Z,26.30
2019-04-20T15:02:30.189Z,26.20
2019-04-20T15:05:01.298Z,26.00
2019-04-20T15:07:33.113Z,25.80
2019-04-20T15:10:04.791Z,25.70
2019-04-20T15:12:49.968Z,25.60
2019-04-20T15:15:14.687Z,25.50
2019-04-20T15:17:53.516Z,25.50
2019-04-20T15:20:45.933Z,25.40
2019-04-20T15:23:25.633Z,25.40
2019-04-20T15:25:56.294Z,25.40
2019-04-20T15:28:28.321Z,25.40
2019-04-20T15:31:00.390Z,25.40
2019-04-20T15:33:31.154Z,25.20
2019-04-20T15:36:02.174Z,25.20
2019-04-20T15:38:33.877Z,25.10
2019-04-20T15:41:05.263Z,25.10
2019-04-20T15:43:37.413Z,25.00
2019-04-20T15:46:09.518Z,25.10
2019-04-20T15:48:39.961Z,25.00
2019-04-20T15:51:10.286Z,25.00
2019-04-20T15:53:41.740Z,25.00
2019-04-20T15:56:12.309Z,25.00
2019-04-20T15:58:44.135Z,24.90
2019-04-20T16:01:16.388Z,24.90
2019-04-20T16:04:01.534Z,24.90
2019-04-20T16:06:32.836Z,24.90
2019-04-20T16:09:06.150Z,24.90
2019-04-20T16:11:37.114Z,25.00
2019-04-20T16:14:07.423Z,25.00
2019-04-20T16:16:40.364Z,25.00
2019-04-20T16:19:25.684Z,24.90
2019-04-20T16:21:44.009Z,25.00
2019-04-20T16:24:17.299Z,24.90
2019-04-20T16:26:56.122Z,24.90
2019-04-20T16:29:26.702Z,25.00
2019-04-20T16:31:58.257Z,24.90
2019-04-20T16:34:29.646Z,25.00
2019-04-20T16:37:02.187Z,25.00
2019-04-20T16:39:32.628Z,25.20
2019-04-20T16:42:04.373Z,25.40
2019-04-20T16:44:35.562Z,25.70
2019-04-20T16:47:06.175Z,26.30
2019-04-20T16:49:37.051Z,27.40
2019-04-20T16:52:07.619Z,28.50
2019-04-20T16:54:38.105Z,29.70
2019-04-20T16:57:11.397Z,30.50
2019-04-20T16:59:47.284Z,30.90
2019-04-20T17:02:15.931Z,31.10
2019-04-20T17:04:45.158Z,31.10
2019-04-20T17:07:20.753Z,30.90
2019-04-20T17:09:51.936Z,30.80
2019-04-20T17:12:23.760Z,30.50
2019-04-20T17:14:55.749Z,30.10
2019-04-20T17:17:27.433Z,29.60
2019-04-20T17:19:58.118Z,29.20
2019-04-20T17:22:29.728Z,28.60
2019-04-20T17:25:01.683Z,27.80
2019-04-20T17:27:57.360Z,27.00
2019-04-20T17:30:59.266Z,26.30
2019-04-20T17:33:59.128Z,25.70
2019-04-20T17:36:25.130Z,25.20
2019-04-20T17:38:56.452Z,24.80
2019-04-20T17:41:44.629Z,24.50
2019-04-20T17:44:14.196Z,24.30
2019-04-20T17:46:43.939Z,24.00
2019-04-20T17:49:16.070Z,23.90
2019-04-20T17:51:59.114Z,23.70
2019-04-20T17:54:17.864Z,23.60
2019-04-20T17:56:48.757Z,23.40
2019-04-20T17:59:20.158Z,23.30
2019-04-20T18:02:30.588Z,23.20
2019-04-20T18:05:20.430Z,23.10
2019-04-20T18:07:44.873Z,22.90
2019-04-20T18:10:17.461Z,22.80
2019-04-20T18:12:42.331Z,22.70
2019-04-20T18:15:29.383Z,22.60
2019-04-20T18:18:20.185Z,22.60
2019-04-20T18:20:40.903Z,22.50
2019-04-20T18:23:12.788Z,22.30
2019-04-20T18:26:04.800Z,22.30
2019-04-20T18:28:32.658Z,22.10
2019-04-20T18:30:59.080Z,22.10
2019-04-20T18:33:30.348Z,21.90
2019-04-20T18:36:00.341Z,21.90
2019-04-20T18:38:38.879Z,21.80
2019-04-20T18:41:07.988Z,21.70
2019-04-20T18:43:45.832Z,21.60
2019-04-20T18:46:26.108Z,21.40
2019-04-20T18:49:04.809Z,21.30
2019-04-20T18:51:17.689Z,21.20
2019-04-20T18:53:50.392Z,21.10
2019-04-20T18:56:25.687Z,21.00
2019-04-20T18:58:56.639Z,20.90
2019-04-20T19:01:33.419Z,20.80
2019-04-20T19:03:59.715Z,20.60
2019-04-20T19:06:33.931Z,20.40
2019-04-20T19:09:09.480Z,20.10
2019-04-20T19:11:43.767Z,20.00
2019-04-20T19:14:33.521Z,19.90
2019-04-20T19:17:12.263Z,19.80
2019-04-20T19:19:46.308Z,19.70
2019-04-20T19:22:14.284Z,19.70
2019-04-20T19:24:45.101Z,19.70
2019-04-20T19:27:17.379Z,19.80
2019-04-20T19:29:58.650Z,19.90
2019-04-20T19:32:35.886Z,20.00
2019-04-20T19:35:01.640Z,20.00
2019-04-20T19:37:31.159Z,20.00
2019-04-20T19:40:08.159Z,20.00
2019-04-20T19:42:42.242Z,20.10
2019-04-20T19:45:31.588Z,20.10
2019-04-20T19:47:51.276Z,20.00
2019-04-20T19:53:05.714Z,20.00
2019-04-20T19:55:27.527Z,19.90
2019-04-20T19:58:02.542Z,19.80
2019-04-20T20:00:39.160Z,19.80
2019-04-20T20:03:10.040Z,19.70
2019-04-20T20:05:46.223Z,19.70
2019-04-20T20:08:19.554Z,19.60
2019-04-20T20:10:46.148Z,19.50
2019-04-20T20:13:18.124Z,19.50
2019-04-20T20:15:57.494Z,19.40
2019-04-20T20:18:35.376Z,19.40
2019-04-20T20:21:09.956Z,19.40
2019-04-20T20:23:27.923Z,19.30
2019-04-20T20:25:58.940Z,19.30
2019-04-20T20:28:40.399Z,19.30
2019-04-20T20:31:13.851Z,19.20
2019-04-20T20:33:51.093Z,19.20
2019-04-20T20:36:12.665Z,19.20
2019-04-20T20:38:48.075Z,19.20
2019-04-20T20:41:20.701Z,19.10
2019-04-20T20:43:56.516Z,19.10
2019-04-20T20:46:27.462Z,19.00
2019-04-20T20:49:09.313Z,19.00
2019-04-20T20:51:42.686Z,18.90
2019-04-20T20:54:03.352Z,18.90
2019-04-20T20:56:32.921Z,18.80
2019-04-20T20:59:04.184Z,18.80
2019-04-20T21:01:42.586Z,18.70
2019-04-20T21:04:02.471Z,18.70
2019-04-20T21:06:33.022Z,18.60
2019-04-20T21:09:05.220Z,18.60
2019-04-20T21:11:38.020Z,18.50
2019-04-20T21:14:09.005Z,18.50
2019-04-20T21:16:46.854Z,18.40
2019-04-20T21:19:24.554Z,18.40
2019-04-20T21:21:53.287Z,18.30
2019-04-20T21:24:30.669Z,18.30
2019-04-20T21:27:09.960Z,18.20
2019-04-20T21:29:42.997Z,18.10
2019-04-20T21:32:12.089Z,18.00
2019-04-20T21:34:42.405Z,17.90
2019-04-20T21:37:14.107Z,17.90
2019-04-20T21:39:49.761Z,17.80
2019-04-20T21:42:19.241Z,17.80
2019-04-20T21:44:50.381Z,17.70
2019-04-20T21:47:27.351Z,17.70
2019-04-20T21:50:09.829Z,17.60
2019-04-20T21:52:32.217Z,17.50
2019-04-20T21:54:56.265Z,17.40
2019-04-20T21:57:32.504Z,17.40
2019-04-20T22:00:10.141Z,17.30
2019-04-20T22:02:46.704Z,17.20
2019-04-20T22:05:11.432Z,17.20
2019-04-20T22:07:42.561Z,17.20
2019-04-20T22:10:19.911Z,17.20
2019-04-20T22:12:51.241Z,17.10
2019-04-20T22:15:26.048Z,17.00
2019-04-20T22:17:52.522Z,17.00
2019-04-20T22:20:34.608Z,16.90
2019-04-20T22:23:05.804Z,16.80
2019-04-20T22:25:51.434Z,16.80
2019-04-20T22:28:02.360Z,16.70
2019-04-20T22:30:33.497Z,16.70
2019-04-20T22:33:46.626Z,16.60
2019-04-20T22:36:18.186Z,16.60
2019-04-20T22:39:09.455Z,16.50
2019-04-20T22:41:59.185Z,16.50
2019-04-20T22:44:26.665Z,16.50
2019-04-20T22:46:56.362Z,16.50
2019-04-20T22:49:41.862Z,16.40
2019-04-20T22:52:13.264Z,16.30
2019-04-20T22:54:46.717Z,16.30
2019-04-20T22:57:12.458Z,16.30
2019-04-20T22:59:46.125Z,16.30
2019-04-20T23:02:13.431Z,16.30
2019-04-20T23:04:44.658Z,16.30
2019-04-20T23:07:15.154Z,16.20
2019-04-20T23:09:52.895Z,16.20
2019-04-20T23:12:23.275Z,16.10
2019-04-20T23:14:52.302Z,16.00
2019-04-20T23:17:30.323Z,16.00
2019-04-20T23:19:59.238Z,16.00
2019-04-20T23:22:34.814Z,16.00
2019-04-20T23:24:59.558Z,15.90
2019-04-20T23:27:32.087Z,15.90
2019-04-20T23:30:11.029Z,15.80
2019-04-20T23:32:35.878Z,15.90
2019-04-20T23:35:12.997Z,15.80
2019-04-20T23:37:43.255Z,15.80
2019-04-20T23:40:15.380Z,15.70
2019-04-20T23:42:51.763Z,15.70
2019-04-20T23:45:38.787Z,15.60
2019-04-20T23:48:12.178Z,15.60
2019-04-20T23:50:59.673Z,15.60
2019-04-20T23:53:32.908Z,15.60
2019-04-20T23:55:47.880Z,15.50
2019-04-20T23:58:21.168Z,15.60
